RYR2MS EGKK-EDDH
Flight info
| Callsign | RYR2MS |
|---|---|
| Flight time | 1h 14m |
| Altitude | 37000 |
| Route | WIZAD DCT KONAN DCT ANDIK M105 RIBSO RIBSO7A |
| Aircraft | B738/M-SDE2E3FGHIRWXY/LB1 |
Departure
| Time | 2026-05-07 19:20 |
|---|---|
| Airport | London Gatwick Airport (EGKK) |
Arrival
| Time | 2026-05-07 20:35 |
|---|---|
| Airport | Hamburg Helmut Schmidt Airport (EDDH) |
| Time | Latitude | Longitude | Altitude | Speed | Heading |
|---|---|---|---|---|---|
| 2026-05-07 18:50 | 51.15529 | -0.16600 | 200 ft | 0 kts | 348° |
| 2026-05-07 19:06 | 51.15509 | -0.16594 | 200 ft | 2 kts | 351° |
| 2026-05-07 19:06 | 51.15494 | -0.16590 | 200 ft | 2 kts | 350° |
| 2026-05-07 19:07 | 51.15481 | -0.16586 | 201 ft | 1 kts | 351° |
| 2026-05-07 19:07 | 51.15474 | -0.16584 | 201 ft | 1 kts | 323° |
| 2026-05-07 19:07 | 51.15469 | -0.16572 | 201 ft | 1 kts | 267° |
| 2026-05-07 19:07 | 51.15470 | -0.16564 | 201 ft | 0 kts | 252° |
| 2026-05-07 19:08 | 51.15471 | -0.16559 | 201 ft | 0 kts | 257° |
| 2026-05-07 19:10 | 51.15470 | -0.16569 | 201 ft | 4 kts | 257° |
| 2026-05-07 19:10 | 51.15455 | -0.16675 | 200 ft | 14 kts | 259° |
| 2026-05-07 19:10 | 51.15447 | -0.16842 | 200 ft | 14 kts | 262° |
| 2026-05-07 19:10 | 51.15429 | -0.16998 | 200 ft | 14 kts | 257° |
| 2026-05-07 19:11 | 51.15405 | -0.17144 | 199 ft | 13 kts | 249° |
| 2026-05-07 19:11 | 51.15369 | -0.17274 | 199 ft | 12 kts | 252° |
| 2026-05-07 19:11 | 51.15324 | -0.17374 | 199 ft | 10 kts | 214° |
| 2026-05-07 19:11 | 51.15291 | -0.17481 | 199 ft | 14 kts | 259° |
| 2026-05-07 19:12 | 51.15260 | -0.17708 | 199 ft | 26 kts | 257° |
| 2026-05-07 19:12 | 51.15216 | -0.18027 | 199 ft | 29 kts | 257° |
| 2026-05-07 19:12 | 51.15175 | -0.18340 | 199 ft | 28 kts | 259° |
| 2026-05-07 19:12 | 51.15140 | -0.18635 | 199 ft | 26 kts | 258° |
| 2026-05-07 19:13 | 51.15102 | -0.18916 | 199 ft | 25 kts | 258° |
| 2026-05-07 19:13 | 51.15062 | -0.19204 | 200 ft | 26 kts | 257° |
| 2026-05-07 19:13 | 51.15023 | -0.19475 | 200 ft | 24 kts | 258° |
| 2026-05-07 19:13 | 51.14987 | -0.19734 | 200 ft | 23 kts | 258° |
| 2026-05-07 19:14 | 51.14956 | -0.19976 | 200 ft | 21 kts | 258° |
| 2026-05-07 19:14 | 51.14925 | -0.20207 | 200 ft | 20 kts | 258° |
| 2026-05-07 19:14 | 51.14894 | -0.20420 | 201 ft | 19 kts | 257° |
| 2026-05-07 19:14 | 51.14869 | -0.20619 | 201 ft | 17 kts | 259° |
| 2026-05-07 19:15 | 51.14843 | -0.20801 | 201 ft | 16 kts | 257° |
| 2026-05-07 19:15 | 51.14819 | -0.20966 | 202 ft | 14 kts | 257° |
| 2026-05-07 19:15 | 51.14798 | -0.21116 | 203 ft | 13 kts | 255° |
| 2026-05-07 19:15 | 51.14773 | -0.21244 | 203 ft | 11 kts | 258° |
| 2026-05-07 19:16 | 51.14757 | -0.21361 | 203 ft | 9 kts | 252° |
| 2026-05-07 19:16 | 51.14733 | -0.21402 | 203 ft | 0 kts | 198° |
| 2026-05-07 19:17 | 51.14732 | -0.21402 | 203 ft | 0 kts | 197° |
| 2026-05-07 19:18 | 51.14710 | -0.21403 | 203 ft | 6 kts | 169° |
| 2026-05-07 19:18 | 51.14657 | -0.21353 | 203 ft | 9 kts | 146° |
| 2026-05-07 19:18 | 51.14597 | -0.21320 | 203 ft | 8 kts | 167° |
| 2026-05-07 19:18 | 51.14537 | -0.21258 | 203 ft | 11 kts | 129° |
| 2026-05-07 19:19 | 51.14523 | -0.21144 | 203 ft | 10 kts | 79° |
| 2026-05-07 19:19 | 51.14543 | -0.20987 | 202 ft | 29 kts | 77° |
| 2026-05-07 19:19 | 51.14637 | -0.20302 | 201 ft | 96 kts | 77° |
| 2026-05-07 19:19 | 51.14824 | -0.18961 | 200 ft | 149 kts | 78° |
| 2026-05-07 19:20 | 51.15071 | -0.17245 | 594 ft | 160 kts | 79° |
| 2026-05-07 19:20 | 51.15304 | -0.15546 | 1230 ft | 162 kts | 80° |
| 2026-05-07 19:20 | 51.15525 | -0.13821 | 1616 ft | 150 kts | 81° |
| 2026-05-07 19:20 | 51.15731 | -0.12230 | 1617 ft | 149 kts | 80° |
| 2026-05-07 19:21 | 51.15954 | -0.10583 | 1922 ft | 161 kts | 79° |
| 2026-05-07 19:21 | 51.16208 | -0.08765 | 2287 ft | 175 kts | 79° |
| 2026-05-07 19:21 | 51.16480 | -0.06801 | 2662 ft | 189 kts | 79° |
| 2026-05-07 19:21 | 51.16771 | -0.04666 | 2982 ft | 207 kts | 80° |
| 2026-05-07 19:22 | 51.16949 | -0.02333 | 3371 ft | 221 kts | 90° |
| 2026-05-07 19:22 | 51.16904 | 0.00177 | 3774 ft | 237 kts | 94° |
| 2026-05-07 19:22 | 51.16810 | 0.02891 | 4253 ft | 253 kts | 94° |
| 2026-05-07 19:22 | 51.16732 | 0.05714 | 4863 ft | 262 kts | 93° |
| 2026-05-07 19:23 | 51.16673 | 0.08620 | 5615 ft | 266 kts | 92° |
| 2026-05-07 19:23 | 51.16620 | 0.11575 | 5939 ft | 269 kts | 92° |
| 2026-05-07 19:23 | 51.16566 | 0.14551 | 5994 ft | 269 kts | 92° |
| 2026-05-07 19:23 | 51.16538 | 0.17507 | 6011 ft | 270 kts | 91° |
| 2026-05-07 19:24 | 51.16547 | 0.20583 | 6628 ft | 277 kts | 90° |
| 2026-05-07 19:24 | 51.16565 | 0.23578 | 7510 ft | 274 kts | 90° |
| 2026-05-07 19:24 | 51.16577 | 0.26631 | 8185 ft | 279 kts | 90° |
| 2026-05-07 19:24 | 51.16585 | 0.29731 | 8863 ft | 283 kts | 90° |
| 2026-05-07 19:25 | 51.16589 | 0.32861 | 9549 ft | 287 kts | 90° |
| 2026-05-07 19:25 | 51.16592 | 0.36047 | 10212 ft | 291 kts | 90° |
| 2026-05-07 19:25 | 51.16594 | 0.39276 | 10884 ft | 294 kts | 90° |
| 2026-05-07 19:25 | 51.16595 | 0.42540 | 11558 ft | 297 kts | 91° |
| 2026-05-07 19:26 | 51.16595 | 0.45816 | 12223 ft | 301 kts | 91° |
| 2026-05-07 19:26 | 51.16594 | 0.49155 | 12883 ft | 305 kts | 91° |
| 2026-05-07 19:26 | 51.16591 | 0.52600 | 13274 ft | 319 kts | 91° |
| 2026-05-07 19:26 | 51.16587 | 0.56213 | 13602 ft | 335 kts | 91° |
| 2026-05-07 19:27 | 51.16583 | 0.59958 | 13925 ft | 350 kts | 91° |
| 2026-05-07 19:27 | 51.16577 | 0.63928 | 14243 ft | 365 kts | 91° |
| 2026-05-07 19:27 | 51.16570 | 0.68015 | 14529 ft | 380 kts | 91° |
| 2026-05-07 19:27 | 51.16562 | 0.72314 | 14799 ft | 396 kts | 91° |
| 2026-05-07 19:28 | 51.16552 | 0.76730 | 15233 ft | 406 kts | 91° |
| 2026-05-07 19:28 | 51.16541 | 0.81281 | 15871 ft | 411 kts | 91° |
| 2026-05-07 19:28 | 51.16528 | 0.85811 | 16516 ft | 415 kts | 91° |
| 2026-05-07 19:28 | 51.16513 | 0.90386 | 17143 ft | 419 kts | 91° |
| 2026-05-07 19:29 | 51.16495 | 0.95062 | 17752 ft | 423 kts | 91° |
| 2026-05-07 19:29 | 51.16476 | 0.99766 | 18029 ft | 428 kts | 91° |
| 2026-05-07 19:29 | 51.16415 | 1.04468 | 18050 ft | 426 kts | 93° |
| 2026-05-07 19:29 | 51.16217 | 1.09176 | 18300 ft | 432 kts | 95° |
| 2026-05-07 19:30 | 51.15947 | 1.13942 | 19082 ft | 432 kts | 96° |
| 2026-05-07 19:30 | 51.15656 | 1.18691 | 19667 ft | 436 kts | 96° |
| 2026-05-07 19:30 | 51.15354 | 1.23476 | 20231 ft | 440 kts | 96° |
| 2026-05-07 19:30 | 51.15045 | 1.28328 | 20778 ft | 444 kts | 96° |
| 2026-05-07 19:31 | 51.14732 | 1.33200 | 21355 ft | 447 kts | 96° |
| 2026-05-07 19:31 | 51.14413 | 1.38120 | 21923 ft | 450 kts | 96° |
| 2026-05-07 19:31 | 51.14091 | 1.43080 | 22443 ft | 454 kts | 96° |
| 2026-05-07 19:31 | 51.13766 | 1.48083 | 22966 ft | 457 kts | 96° |
| 2026-05-07 19:32 | 51.13437 | 1.53131 | 23449 ft | 461 kts | 96° |
| 2026-05-07 19:32 | 51.13110 | 1.58139 | 23951 ft | 465 kts | 96° |
| 2026-05-07 19:32 | 51.12773 | 1.63269 | 24428 ft | 468 kts | 96° |
| 2026-05-07 19:32 | 51.12433 | 1.68421 | 24904 ft | 472 kts | 97° |
| 2026-05-07 19:33 | 51.12089 | 1.73615 | 25371 ft | 475 kts | 97° |
| 2026-05-07 19:33 | 51.11743 | 1.78823 | 25827 ft | 478 kts | 97° |
| 2026-05-07 19:33 | 51.11390 | 1.84107 | 26281 ft | 481 kts | 97° |
| 2026-05-07 19:33 | 51.11037 | 1.89386 | 26720 ft | 484 kts | 97° |
| 2026-05-07 19:34 | 51.10711 | 1.94700 | 27274 ft | 484 kts | 94° |
| 2026-05-07 19:34 | 51.10748 | 1.99969 | 27926 ft | 482 kts | 85° |
| 2026-05-07 19:34 | 51.11290 | 2.05228 | 28464 ft | 482 kts | 76° |
| 2026-05-07 19:34 | 51.12344 | 2.10286 | 29021 ft | 481 kts | 66° |
| 2026-05-07 19:35 | 51.13873 | 2.14994 | 29545 ft | 479 kts | 57° |
| 2026-05-07 19:35 | 51.15846 | 2.19270 | 30018 ft | 478 kts | 48° |
| 2026-05-07 19:35 | 51.18195 | 2.23024 | 30510 ft | 476 kts | 40° |
| 2026-05-07 19:35 | 51.20759 | 2.26296 | 30977 ft | 474 kts | 34° |
| 2026-05-07 19:36 | 51.23563 | 2.29163 | 31431 ft | 472 kts | 27° |
| 2026-05-07 19:36 | 51.26487 | 2.31504 | 31871 ft | 470 kts | 22° |
| 2026-05-07 19:36 | 51.29374 | 2.33946 | 32235 ft | 472 kts | 33° |
| 2026-05-07 19:36 | 51.31852 | 2.37336 | 32635 ft | 473 kts | 44° |
| 2026-05-07 19:37 | 51.34098 | 2.41263 | 33017 ft | 473 kts | 48° |
| 2026-05-07 19:37 | 51.36195 | 2.45292 | 33407 ft | 472 kts | 50° |
| 2026-05-07 19:37 | 51.38236 | 2.49358 | 33778 ft | 472 kts | 50° |
| 2026-05-07 19:37 | 51.40252 | 2.53431 | 34114 ft | 472 kts | 50° |
| 2026-05-07 19:38 | 51.42285 | 2.57567 | 34483 ft | 471 kts | 50° |
| 2026-05-07 19:38 | 51.44304 | 2.61683 | 34815 ft | 470 kts | 50° |
| 2026-05-07 19:38 | 51.46304 | 2.65767 | 35063 ft | 470 kts | 51° |
| 2026-05-07 19:38 | 51.48334 | 2.69912 | 35302 ft | 470 kts | 51° |
| 2026-05-07 19:39 | 51.50339 | 2.74003 | 35531 ft | 470 kts | 51° |
| 2026-05-07 19:39 | 51.52360 | 2.78124 | 35778 ft | 469 kts | 51° |
| 2026-05-07 19:39 | 51.54356 | 2.82191 | 35999 ft | 469 kts | 51° |
| 2026-05-07 19:39 | 51.56370 | 2.86293 | 36243 ft | 467 kts | 51° |
| 2026-05-07 19:40 | 51.58357 | 2.90339 | 36458 ft | 467 kts | 51° |
| 2026-05-07 19:40 | 51.60383 | 2.94459 | 36653 ft | 467 kts | 51° |
| 2026-05-07 19:40 | 51.62394 | 2.98546 | 36853 ft | 467 kts | 51° |
| 2026-05-07 19:40 | 51.64392 | 3.02604 | 37017 ft | 467 kts | 51° |
| 2026-05-07 19:41 | 51.68413 | 3.10762 | 37064 ft | 469 kts | 51° |
| 2026-05-07 19:41 | 51.72461 | 3.18989 | 37055 ft | 467 kts | 51° |
| 2026-05-07 19:42 | 51.76466 | 3.27165 | 37062 ft | 468 kts | 51° |
| 2026-05-07 19:42 | 51.80487 | 3.35380 | 37069 ft | 468 kts | 51° |
| 2026-05-07 19:43 | 51.84530 | 3.43636 | 37071 ft | 468 kts | 51° |
| 2026-05-07 19:43 | 51.88553 | 3.51850 | 37066 ft | 467 kts | 51° |
| 2026-05-07 19:44 | 51.92592 | 3.60090 | 37068 ft | 467 kts | 51° |
| 2026-05-07 19:44 | 51.96605 | 3.68289 | 37071 ft | 466 kts | 51° |
| 2026-05-07 19:45 | 52.00603 | 3.76480 | 37065 ft | 466 kts | 51° |
| 2026-05-07 19:45 | 52.04621 | 3.84731 | 37070 ft | 466 kts | 51° |
| 2026-05-07 19:46 | 52.08633 | 3.92961 | 37072 ft | 466 kts | 51° |
| 2026-05-07 19:46 | 52.12636 | 4.01157 | 37073 ft | 466 kts | 51° |
| 2026-05-07 19:47 | 52.16645 | 4.09363 | 37072 ft | 466 kts | 51° |
| 2026-05-07 19:47 | 52.20665 | 4.17598 | 37072 ft | 465 kts | 51° |
| 2026-05-07 19:48 | 52.24692 | 4.25857 | 37074 ft | 465 kts | 51° |
| 2026-05-07 19:48 | 52.28698 | 4.34077 | 37074 ft | 465 kts | 51° |
| 2026-05-07 19:49 | 52.32719 | 4.42329 | 37076 ft | 464 kts | 51° |
| 2026-05-07 19:49 | 52.36734 | 4.50581 | 37076 ft | 465 kts | 51° |
| 2026-05-07 19:50 | 52.40729 | 4.58792 | 37077 ft | 464 kts | 51° |
| 2026-05-07 19:50 | 52.44752 | 4.67070 | 37078 ft | 464 kts | 52° |
| 2026-05-07 19:51 | 52.48768 | 4.75314 | 37079 ft | 464 kts | 52° |
| 2026-05-07 19:51 | 52.52783 | 4.83547 | 37080 ft | 463 kts | 52° |
| 2026-05-07 19:52 | 52.56813 | 4.91817 | 37081 ft | 463 kts | 52° |
| 2026-05-07 19:52 | 52.60816 | 5.00058 | 37080 ft | 463 kts | 52° |
| 2026-05-07 19:53 | 52.64810 | 5.08308 | 37082 ft | 462 kts | 52° |
| 2026-05-07 19:53 | 52.68793 | 5.16548 | 37085 ft | 463 kts | 52° |
| 2026-05-07 19:54 | 52.72792 | 5.24813 | 37088 ft | 462 kts | 51° |
| 2026-05-07 19:54 | 52.76814 | 5.33119 | 37089 ft | 462 kts | 51° |
| 2026-05-07 19:55 | 52.80802 | 5.41349 | 37090 ft | 461 kts | 51° |
| 2026-05-07 19:55 | 52.84803 | 5.49623 | 37088 ft | 461 kts | 51° |
| 2026-05-07 19:56 | 52.88533 | 5.58193 | 37087 ft | 460 kts | 66° |
| 2026-05-07 19:56 | 52.89412 | 5.63235 | 37096 ft | 457 kts | 83° |
| 2026-05-07 19:56 | 52.89570 | 5.68464 | 37096 ft | 458 kts | 92° |
| 2026-05-07 19:57 | 52.89342 | 5.78985 | 37092 ft | 458 kts | 91° |
| 2026-05-07 19:57 | 52.89555 | 5.89442 | 37095 ft | 456 kts | 87° |
| 2026-05-07 19:58 | 52.90423 | 5.99860 | 37093 ft | 457 kts | 79° |
| 2026-05-07 19:58 | 52.91958 | 6.10101 | 37091 ft | 459 kts | 75° |
| 2026-05-07 19:59 | 52.93812 | 6.20172 | 37089 ft | 459 kts | 73° |
| 2026-05-07 19:59 | 52.95820 | 6.30258 | 37091 ft | 460 kts | 72° |
| 2026-05-07 20:00 | 52.97858 | 6.40250 | 37090 ft | 460 kts | 71° |
| 2026-05-07 20:00 | 52.99922 | 6.50329 | 37090 ft | 459 kts | 71° |
| 2026-05-07 20:01 | 53.01960 | 6.60321 | 37095 ft | 459 kts | 71° |
| 2026-05-07 20:01 | 53.03916 | 6.69961 | 37092 ft | 458 kts | 72° |
| 2026-05-07 20:02 | 53.05921 | 6.79886 | 37091 ft | 443 kts | 72° |
| 2026-05-07 20:02 | 53.06888 | 6.84688 | 37090 ft | 430 kts | 72° |
| 2026-05-07 20:02 | 53.07826 | 6.89363 | 37099 ft | 430 kts | 72° |
| 2026-05-07 20:03 | 53.09717 | 6.98835 | 37094 ft | 438 kts | 72° |
| 2026-05-07 20:03 | 53.11623 | 7.08431 | 37093 ft | 437 kts | 72° |
| 2026-05-07 20:04 | 53.13529 | 7.18060 | 37091 ft | 436 kts | 72° |
| 2026-05-07 20:04 | 53.15414 | 7.27641 | 37090 ft | 437 kts | 72° |
| 2026-05-07 20:05 | 53.17288 | 7.37214 | 37096 ft | 437 kts | 72° |
| 2026-05-07 20:05 | 53.19165 | 7.46854 | 37089 ft | 436 kts | 72° |
| 2026-05-07 20:06 | 53.21025 | 7.56460 | 37094 ft | 436 kts | 72° |
| 2026-05-07 20:06 | 53.22871 | 7.66031 | 37096 ft | 437 kts | 73° |
| 2026-05-07 20:07 | 53.24781 | 7.75640 | 36974 ft | 439 kts | 69° |
| 2026-05-07 20:07 | 53.26096 | 7.80233 | 36649 ft | 441 kts | 62° |
| 2026-05-07 20:07 | 53.27647 | 7.84633 | 36151 ft | 443 kts | 59° |
| 2026-05-07 20:08 | 53.29307 | 7.88955 | 35533 ft | 447 kts | 58° |
| 2026-05-07 20:08 | 53.31034 | 7.93342 | 34841 ft | 452 kts | 58° |
| 2026-05-07 20:08 | 53.32758 | 7.97744 | 34001 ft | 457 kts | 58° |
| 2026-05-07 20:08 | 53.34485 | 8.02231 | 33175 ft | 460 kts | 58° |
| 2026-05-07 20:09 | 53.36180 | 8.06716 | 32365 ft | 463 kts | 59° |
| 2026-05-07 20:09 | 53.37877 | 8.11279 | 31548 ft | 465 kts | 59° |
| 2026-05-07 20:09 | 53.39562 | 8.15865 | 30823 ft | 465 kts | 59° |
| 2026-05-07 20:10 | 53.42913 | 8.25085 | 29564 ft | 456 kts | 59° |
| 2026-05-07 20:10 | 53.44539 | 8.29592 | 29141 ft | 448 kts | 59° |
| 2026-05-07 20:10 | 53.46115 | 8.33976 | 28538 ft | 445 kts | 59° |
| 2026-05-07 20:10 | 53.47715 | 8.38438 | 27636 ft | 448 kts | 58° |
| 2026-05-07 20:11 | 53.49318 | 8.42917 | 26662 ft | 452 kts | 58° |
| 2026-05-07 20:11 | 53.50926 | 8.47420 | 25620 ft | 456 kts | 58° |
| 2026-05-07 20:11 | 53.52559 | 8.52003 | 24583 ft | 459 kts | 58° |
| 2026-05-07 20:11 | 53.54185 | 8.56576 | 23669 ft | 456 kts | 58° |
| 2026-05-07 20:12 | 53.55774 | 8.61051 | 22981 ft | 442 kts | 58° |
| 2026-05-07 20:12 | 53.57317 | 8.65405 | 22423 ft | 427 kts | 59° |
| 2026-05-07 20:12 | 53.58796 | 8.69589 | 21755 ft | 417 kts | 59° |
| 2026-05-07 20:12 | 53.60267 | 8.73753 | 21008 ft | 413 kts | 59° |
| 2026-05-07 20:13 | 53.61733 | 8.77912 | 20228 ft | 410 kts | 59° |
| 2026-05-07 20:13 | 53.63166 | 8.81981 | 19476 ft | 403 kts | 59° |
| 2026-05-07 20:13 | 53.64568 | 8.85969 | 18725 ft | 400 kts | 59° |
| 2026-05-07 20:13 | 53.65981 | 8.89996 | 17708 ft | 400 kts | 59° |
| 2026-05-07 20:14 | 53.67369 | 8.93957 | 17002 ft | 391 kts | 59° |
| 2026-05-07 20:14 | 53.68715 | 8.97806 | 16409 ft | 380 kts | 59° |
| 2026-05-07 20:14 | 53.70041 | 9.01605 | 15786 ft | 370 kts | 59° |
| 2026-05-07 20:14 | 53.71327 | 9.05294 | 15215 ft | 362 kts | 59° |
| 2026-05-07 20:15 | 53.72594 | 9.08932 | 14613 ft | 361 kts | 59° |
| 2026-05-07 20:15 | 53.73850 | 9.12543 | 13992 ft | 361 kts | 59° |
| 2026-05-07 20:15 | 53.75124 | 9.16211 | 13356 ft | 358 kts | 59° |
| 2026-05-07 20:15 | 53.76348 | 9.19741 | 12767 ft | 349 kts | 59° |
| 2026-05-07 20:16 | 53.77552 | 9.23234 | 12176 ft | 342 kts | 60° |
| 2026-05-07 20:16 | 53.78722 | 9.26653 | 11595 ft | 334 kts | 60° |
| 2026-05-07 20:16 | 53.79860 | 9.29985 | 11277 ft | 319 kts | 60° |
| 2026-05-07 20:16 | 53.80946 | 9.33166 | 11031 ft | 304 kts | 60° |
| 2026-05-07 20:17 | 53.81970 | 9.36167 | 10928 ft | 291 kts | 60° |
| 2026-05-07 20:17 | 53.82953 | 9.39055 | 10832 ft | 278 kts | 60° |
| 2026-05-07 20:17 | 53.83897 | 9.41833 | 10741 ft | 267 kts | 59° |
| 2026-05-07 20:17 | 53.84804 | 9.44504 | 10651 ft | 255 kts | 59° |
| 2026-05-07 20:18 | 53.85578 | 9.47124 | 10440 ft | 250 kts | 73° |
| 2026-05-07 20:18 | 53.85673 | 9.50016 | 10081 ft | 250 kts | 102° |
| 2026-05-07 20:18 | 53.84888 | 9.52628 | 9744 ft | 251 kts | 132° |
| 2026-05-07 20:18 | 53.83453 | 9.54234 | 9417 ft | 251 kts | 158° |
| 2026-05-07 20:19 | 53.81784 | 9.55112 | 9103 ft | 251 kts | 163° |
| 2026-05-07 20:19 | 53.80110 | 9.55861 | 8865 ft | 248 kts | 163° |
| 2026-05-07 20:19 | 53.78437 | 9.56593 | 8640 ft | 248 kts | 163° |
| 2026-05-07 20:19 | 53.76783 | 9.57309 | 8433 ft | 247 kts | 163° |
| 2026-05-07 20:20 | 53.75131 | 9.58016 | 8231 ft | 246 kts | 163° |
| 2026-05-07 20:20 | 53.73468 | 9.58723 | 8023 ft | 245 kts | 163° |
| 2026-05-07 20:20 | 53.71820 | 9.59420 | 7809 ft | 245 kts | 163° |
| 2026-05-07 20:20 | 53.70158 | 9.60120 | 7603 ft | 244 kts | 163° |
| 2026-05-07 20:21 | 53.68515 | 9.60810 | 7397 ft | 243 kts | 163° |
| 2026-05-07 20:21 | 53.66884 | 9.61491 | 7184 ft | 243 kts | 163° |
| 2026-05-07 20:21 | 53.65247 | 9.62171 | 6939 ft | 242 kts | 163° |
| 2026-05-07 20:21 | 53.63614 | 9.62846 | 6686 ft | 241 kts | 163° |
| 2026-05-07 20:22 | 53.61998 | 9.63511 | 6542 ft | 240 kts | 163° |
| 2026-05-07 20:22 | 53.60380 | 9.64173 | 6403 ft | 240 kts | 163° |
| 2026-05-07 20:22 | 53.58739 | 9.64665 | 6265 ft | 241 kts | 178° |
| 2026-05-07 20:22 | 53.57110 | 9.63960 | 6126 ft | 246 kts | 209° |
| 2026-05-07 20:23 | 53.55861 | 9.62021 | 6032 ft | 248 kts | 230° |
| 2026-05-07 20:23 | 53.54846 | 9.59678 | 5896 ft | 248 kts | 233° |
| 2026-05-07 20:23 | 53.53862 | 9.57312 | 5753 ft | 247 kts | 233° |
| 2026-05-07 20:23 | 53.52885 | 9.54960 | 5614 ft | 246 kts | 233° |
| 2026-05-07 20:24 | 53.51901 | 9.52589 | 5479 ft | 246 kts | 233° |
| 2026-05-07 20:24 | 53.50931 | 9.50250 | 5323 ft | 245 kts | 233° |
| 2026-05-07 20:24 | 53.49962 | 9.47918 | 5171 ft | 245 kts | 233° |
| 2026-05-07 20:24 | 53.48985 | 9.45559 | 5017 ft | 244 kts | 233° |
| 2026-05-07 20:25 | 53.48002 | 9.43246 | 4864 ft | 243 kts | 229° |
| 2026-05-07 20:25 | 53.46857 | 9.41259 | 4704 ft | 234 kts | 212° |
| 2026-05-07 20:25 | 53.45398 | 9.40338 | 4552 ft | 219 kts | 179° |
| 2026-05-07 20:25 | 53.44004 | 9.40857 | 4401 ft | 205 kts | 148° |
| 2026-05-07 20:26 | 53.42792 | 9.42091 | 4247 ft | 204 kts | 143° |
| 2026-05-07 20:26 | 53.41585 | 9.43394 | 4091 ft | 204 kts | 143° |
| 2026-05-07 20:26 | 53.40511 | 9.44851 | 3937 ft | 199 kts | 123° |
| 2026-05-07 20:26 | 53.40070 | 9.46985 | 3782 ft | 196 kts | 88° |
| 2026-05-07 20:27 | 53.40329 | 9.49235 | 3629 ft | 196 kts | 75° |
| 2026-05-07 20:27 | 53.40681 | 9.51417 | 3476 ft | 195 kts | 76° |
| 2026-05-07 20:27 | 53.41076 | 9.53569 | 3320 ft | 194 kts | 69° |
| 2026-05-07 20:27 | 53.41684 | 9.55590 | 3160 ft | 194 kts | 59° |
| 2026-05-07 20:28 | 53.42445 | 9.57439 | 3024 ft | 194 kts | 54° |
| 2026-05-07 20:28 | 53.43277 | 9.59210 | 2995 ft | 194 kts | 53° |
| 2026-05-07 20:28 | 53.44133 | 9.60953 | 2989 ft | 194 kts | 52° |
| 2026-05-07 20:28 | 53.45001 | 9.62691 | 2983 ft | 194 kts | 52° |
| 2026-05-07 20:29 | 53.45879 | 9.64436 | 2985 ft | 195 kts | 52° |
| 2026-05-07 20:29 | 53.46746 | 9.66164 | 2994 ft | 195 kts | 52° |
| 2026-05-07 20:29 | 53.47620 | 9.67911 | 2990 ft | 195 kts | 52° |
| 2026-05-07 20:29 | 53.48490 | 9.69649 | 2996 ft | 195 kts | 52° |
| 2026-05-07 20:30 | 53.49363 | 9.71389 | 2977 ft | 195 kts | 52° |
| 2026-05-07 20:30 | 53.50243 | 9.73146 | 2993 ft | 196 kts | 52° |
| 2026-05-07 20:30 | 53.51114 | 9.74886 | 2996 ft | 196 kts | 52° |
| 2026-05-07 20:30 | 53.51979 | 9.76612 | 2991 ft | 187 kts | 52° |
| 2026-05-07 20:31 | 53.52782 | 9.78214 | 2942 ft | 172 kts | 53° |
| 2026-05-07 20:31 | 53.53536 | 9.79727 | 2694 ft | 168 kts | 53° |
| 2026-05-07 20:31 | 53.54285 | 9.81227 | 2459 ft | 163 kts | 53° |
| 2026-05-07 20:31 | 53.55003 | 9.82668 | 2236 ft | 161 kts | 53° |
| 2026-05-07 20:32 | 53.55724 | 9.84112 | 2009 ft | 161 kts | 53° |
| 2026-05-07 20:32 | 53.56435 | 9.85540 | 1788 ft | 159 kts | 53° |
| 2026-05-07 20:32 | 53.57127 | 9.86929 | 1585 ft | 149 kts | 53° |
| 2026-05-07 20:32 | 53.57772 | 9.88220 | 1378 ft | 141 kts | 53° |
| 2026-05-07 20:33 | 53.58392 | 9.89475 | 1184 ft | 141 kts | 52° |
| 2026-05-07 20:33 | 53.59031 | 9.90748 | 993 ft | 141 kts | 51° |
| 2026-05-07 20:33 | 53.59660 | 9.92008 | 792 ft | 142 kts | 52° |
| 2026-05-07 20:33 | 53.60285 | 9.93290 | 620 ft | 141 kts | 51° |
| 2026-05-07 20:34 | 53.60929 | 9.94563 | 423 ft | 142 kts | 51° |
| 2026-05-07 20:34 | 53.61561 | 9.95843 | 197 ft | 142 kts | 50° |
| 2026-05-07 20:34 | 53.62195 | 9.97119 | 46 ft | 139 kts | 50° |
| 2026-05-07 20:34 | 53.62713 | 9.98171 | 42 ft | 89 kts | 50° |
| 2026-05-07 20:35 | 53.63000 | 9.98753 | 43 ft | 41 kts | 50° |
| 2026-05-07 20:35 | 53.63088 | 9.99017 | 44 ft | 20 kts | 80° |
| 2026-05-07 20:35 | 53.63088 | 9.99218 | 44 ft | 15 kts | 95° |
| 2026-05-07 20:35 | 53.63086 | 9.99337 | 44 ft | 9 kts | 81° |
| 2026-05-07 20:36 | 53.63121 | 9.99453 | 45 ft | 14 kts | 56° |
| 2026-05-07 20:36 | 53.63188 | 9.99605 | 45 ft | 12 kts | 50° |
| 2026-05-07 20:36 | 53.63216 | 9.99660 | 46 ft | 0 kts | 48° |
| 2026-05-07 20:37 | 53.63217 | 9.99661 | 46 ft | 0 kts | 48° |
| 2026-05-07 20:37 | 53.63222 | 9.99672 | 46 ft | 2 kts | 51° |
| 2026-05-07 20:38 | 53.63228 | 9.99734 | 46 ft | 8 kts | 109° |
| 2026-05-07 20:38 | 53.63167 | 9.99809 | 46 ft | 12 kts | 152° |
| 2026-05-07 20:38 | 53.63078 | 9.99887 | 46 ft | 17 kts | 152° |
| 2026-05-07 20:38 | 53.62966 | 9.99984 | 46 ft | 12 kts | 152° |
| 2026-05-07 20:39 | 53.62947 | 10.00106 | 46 ft | 11 kts | 66° |
| 2026-05-07 20:39 | 53.62996 | 10.00184 | 47 ft | 8 kts | 33° |
| 2026-05-07 20:39 | 53.63044 | 10.00235 | 47 ft | 7 kts | 32° |
| 2026-05-07 20:39 | 53.63052 | 10.00292 | 47 ft | 5 kts | 122° |
| 2026-05-07 20:40 | 53.63038 | 10.00330 | 47 ft | 2 kts | 122° |
| 2026-05-07 20:40 | 53.63032 | 10.00343 | 47 ft | 0 kts | 122° |